sensor_id;sensor_type;location;lat;lon;timestamp;pressure;altitude;pressure_sealevel;temperature
15680;BMP180;15488;48.114;11.532;2023-01-28T00:01:13;95598.00;;;8.60
15680;BMP180;15488;48.114;11.532;2023-01-28T00:03:41;95595.00;;;8.60
15680;BMP180;15488;48.114;11.532;2023-01-28T00:06:11;95585.00;;;8.60
15680;BMP180;15488;48.114;11.532;2023-01-28T00:08:39;95591.00;;;8.70
15680;BMP180;15488;48.114;11.532;2023-01-28T00:11:09;95587.00;;;8.60
15680;BMP180;15488;48.114;11.532;2023-01-28T00:13:37;95589.00;;;8.60
15680;BMP180;15488;48.114;11.532;2023-01-28T00:16:07;95584.00;;;8.60
15680;BMP180;15488;48.114;11.532;2023-01-28T00:18:35;95591.00;;;8.60
15680;BMP180;15488;48.114;11.532;2023-01-28T00:21:04;95590.00;;;8.60
15680;BMP180;15488;48.114;11.532;2023-01-28T00:23:34;95590.00;;;8.60
15680;BMP180;15488;48.114;11.532;2023-01-28T00:26:04;95585.00;;;8.70
15680;BMP180;15488;48.114;11.532;2023-01-28T00:28:31;95593.00;;;8.70
15680;BMP180;15488;48.114;11.532;2023-01-28T00:31:06;95589.00;;;8.70
15680;BMP180;15488;48.114;11.532;2023-01-28T00:33:34;95589.00;;;8.60
15680;BMP180;15488;48.114;11.532;2023-01-28T00:36:03;95586.00;;;8.60
15680;BMP180;15488;48.114;11.532;2023-01-28T00:38:32;95594.00;;;8.60
15680;BMP180;15488;48.114;11.532;2023-01-28T00:41:07;95595.00;;;8.60
15680;BMP180;15488;48.114;11.532;2023-01-28T00:43:35;95592.00;;;8.60
15680;BMP180;15488;48.114;11.532;2023-01-28T00:46:03;95593.00;;;8.60
15680;BMP180;15488;48.114;11.532;2023-01-28T00:48:32;95591.00;;;8.60
15680;BMP180;15488;48.114;11.532;2023-01-28T00:50:59;95593.00;;;8.70
15680;BMP180;15488;48.114;11.532;2023-01-28T00:53:27;95600.00;;;8.60
15680;BMP180;15488;48.114;11.532;2023-01-28T00:55:55;95590.00;;;8.60
15680;BMP180;15488;48.114;11.532;2023-01-28T00:58:22;95588.00;;;8.60
15680;BMP180;15488;48.114;11.532;2023-01-28T01:00:50;95593.00;;;8.60
15680;BMP180;15488;48.114;11.532;2023-01-28T01:03:18;95590.00;;;8.60
15680;BMP180;15488;48.114;11.532;2023-01-28T01:05:47;95593.00;;;8.60
15680;BMP180;15488;48.114;11.532;2023-01-28T01:08:14;95584.00;;;8.60
15680;BMP180;15488;48.114;11.532;2023-01-28T01:10:42;95590.00;;;8.60
15680;BMP180;15488;48.114;11.532;2023-01-28T01:13:09;95595.00;;;8.60
15680;BMP180;15488;48.114;11.532;2023-01-28T01:15:37;95601.00;;;8.60
15680;BMP180;15488;48.114;11.532;2023-01-28T01:18:04;95598.00;;;8.60
15680;BMP180;15488;48.114;11.532;2023-01-28T01:20:32;95603.00;;;8.60
15680;BMP180;15488;48.114;11.532;2023-01-28T01:23:07;95607.00;;;8.60
15680;BMP180;15488;48.114;11.532;2023-01-28T01:25:35;95601.00;;;8.60
15680;BMP180;15488;48.114;11.532;2023-01-28T01:28:02;95605.00;;;8.60
15680;BMP180;15488;48.114;11.532;2023-01-28T01:30:30;95597.00;;;8.60
15680;BMP180;15488;48.114;11.532;2023-01-28T01:32:57;95594.00;;;8.60
15680;BMP180;15488;48.114;11.532;2023-01-28T01:35:25;95601.00;;;8.60
15680;BMP180;15488;48.114;11.532;2023-01-28T01:37:52;95602.00;;;8.60
15680;BMP180;15488;48.114;11.532;2023-01-28T01:40:21;95607.00;;;8.60
15680;BMP180;15488;48.114;11.532;2023-01-28T01:42:48;95609.00;;;8.60
15680;BMP180;15488;48.114;11.532;2023-01-28T01:45:16;95607.00;;;8.60
15680;BMP180;15488;48.114;11.532;2023-01-28T01:47:46;95610.00;;;8.60
15680;BMP180;15488;48.114;11.532;2023-01-28T01:50:20;95614.00;;;8.60
15680;BMP180;15488;48.114;11.532;2023-01-28T01:52:55;95612.00;;;8.60
15680;BMP180;15488;48.114;11.532;2023-01-28T01:55:28;95618.00;;;8.60
15680;BMP180;15488;48.114;11.532;2023-01-28T01:57:59;95616.00;;;8.60
15680;BMP180;15488;48.114;11.532;2023-01-28T02:00:28;95619.00;;;8.60
15680;BMP180;15488;48.114;11.532;2023-01-28T02:02:55;95620.00;;;8.60
15680;BMP180;15488;48.114;11.532;2023-01-28T02:05:24;95624.00;;;8.50
15680;BMP180;15488;48.114;11.532;2023-01-28T02:07:54;95615.00;;;8.50
15680;BMP180;15488;48.114;11.532;2023-01-28T02:10:45;95626.00;;;8.50
15680;BMP180;15488;48.114;11.532;2023-01-28T02:13:14;95613.00;;;8.50
15680;BMP180;15488;48.114;11.532;2023-01-28T02:15:43;95623.00;;;8.50
15680;BMP180;15488;48.114;11.532;2023-01-28T02:18:11;95629.00;;;8.50
15680;BMP180;15488;48.114;11.532;2023-01-28T02:20:50;95634.00;;;8.50
15680;BMP180;15488;48.114;11.532;2023-01-28T02:23:43;95622.00;;;8.50
15680;BMP180;15488;48.114;11.532;2023-01-28T02:26:37;95633.00;;;8.50
15680;BMP180;15488;48.114;11.532;2023-01-28T02:29:14;95624.00;;;8.50
15680;BMP180;15488;48.114;11.532;2023-01-28T02:31:47;95618.00;;;8.50
15680;BMP180;15488;48.114;11.532;2023-01-28T02:34:22;95619.00;;;8.50
15680;BMP180;15488;48.114;11.532;2023-01-28T02:36:57;95621.00;;;8.50
15680;BMP180;15488;48.114;11.532;2023-01-28T02:39:28;95626.00;;;8.50
15680;BMP180;15488;48.114;11.532;2023-01-28T02:44:42;95632.00;;;8.50
15680;BMP180;15488;48.114;11.532;2023-01-28T02:47:10;95625.00;;;8.50
15680;BMP180;15488;48.114;11.532;2023-01-28T02:49:57;95629.00;;;8.50
15680;BMP180;15488;48.114;11.532;2023-01-28T02:52:36;95628.00;;;8.50
15680;BMP180;15488;48.114;11.532;2023-01-28T02:55:42;95630.00;;;8.50
15680;BMP180;15488;48.114;11.532;2023-01-28T02:58:17;95628.00;;;8.50
15680;BMP180;15488;48.114;11.532;2023-01-28T03:00:52;95631.00;;;8.50
15680;BMP180;15488;48.114;11.532;2023-01-28T03:03:25;95633.00;;;8.50
15680;BMP180;15488;48.114;11.532;2023-01-28T03:05:55;95640.00;;;8.50
15680;BMP180;15488;48.114;11.532;2023-01-28T03:08:38;95632.00;;;8.50
15680;BMP180;15488;48.114;11.532;2023-01-28T03:11:23;95641.00;;;8.50
15680;BMP180;15488;48.114;11.532;2023-01-28T03:14:10;95645.00;;;8.50
15680;BMP180;15488;48.114;11.532;2023-01-28T03:16:59;95637.00;;;8.50
15680;BMP180;15488;48.114;11.532;2023-01-28T03:19:45;95644.00;;;8.50
15680;BMP180;15488;48.114;11.532;2023-01-28T03:22:35;95638.00;;;8.50
15680;BMP180;15488;48.114;11.532;2023-01-28T03:25:22;95639.00;;;8.50
15680;BMP180;15488;48.114;11.532;2023-01-28T03:28:14;95650.00;;;8.50
15680;BMP180;15488;48.114;11.532;2023-01-28T03:31:05;95642.00;;;8.40
15680;BMP180;15488;48.114;11.532;2023-01-28T03:33:53;95652.00;;;8.40
15680;BMP180;15488;48.114;11.532;2023-01-28T03:36:38;95655.00;;;8.50
15680;BMP180;15488;48.114;11.532;2023-01-28T03:39:22;95648.00;;;8.40
15680;BMP180;15488;48.114;11.532;2023-01-28T03:41:59;95655.00;;;8.40
15680;BMP180;15488;48.114;11.532;2023-01-28T03:44:27;95652.00;;;8.40
15680;BMP180;15488;48.114;11.532;2023-01-28T03:47:12;95657.00;;;8.40
15680;BMP180;15488;48.114;11.532;2023-01-28T03:49:42;95656.00;;;8.40
15680;BMP180;15488;48.114;11.532;2023-01-28T03:52:11;95658.00;;;8.50
15680;BMP180;15488;48.114;11.532;2023-01-28T03:54:39;95655.00;;;8.50
15680;BMP180;15488;48.114;11.532;2023-01-28T03:57:06;95664.00;;;8.50
15680;BMP180;15488;48.114;11.532;2023-01-28T03:59:34;95656.00;;;8.50
15680;BMP180;15488;48.114;11.532;2023-01-28T04:02:01;95666.00;;;8.50
15680;BMP180;15488;48.114;11.532;2023-01-28T04:04:30;95659.00;;;8.50
15680;BMP180;15488;48.114;11.532;2023-01-28T04:06:59;95661.00;;;8.50
15680;BMP180;15488;48.114;11.532;2023-01-28T04:09:26;95658.00;;;8.50
15680;BMP180;15488;48.114;11.532;2023-01-28T04:11:54;95664.00;;;8.50
15680;BMP180;15488;48.114;11.532;2023-01-28T04:14:21;95672.00;;;8.50
15680;BMP180;15488;48.114;11.532;2023-01-28T04:16:49;95671.00;;;8.50
15680;BMP180;15488;48.114;11.532;2023-01-28T04:19:17;95667.00;;;8.50
15680;BMP180;15488;48.114;11.532;2023-01-28T04:21:44;95675.00;;;8.50
15680;BMP180;15488;48.114;11.532;2023-01-28T04:24:14;95679.00;;;8.50
15680;BMP180;15488;48.114;11.532;2023-01-28T04:26:41;95675.00;;;8.50
15680;BMP180;15488;48.114;11.532;2023-01-28T04:29:09;95675.00;;;8.50
15680;BMP180;15488;48.114;11.532;2023-01-28T04:31:36;95680.00;;;8.50
15680;BMP180;15488;48.114;11.532;2023-01-28T04:34:04;95682.00;;;8.50
15680;BMP180;15488;48.114;11.532;2023-01-28T04:36:31;95688.00;;;8.50
15680;BMP180;15488;48.114;11.532;2023-01-28T04:38:59;95684.00;;;8.50
15680;BMP180;15488;48.114;11.532;2023-01-28T04:41:27;95685.00;;;8.50
15680;BMP180;15488;48.114;11.532;2023-01-28T04:43:55;95682.00;;;8.50
15680;BMP180;15488;48.114;11.532;2023-01-28T04:46:22;95688.00;;;8.50
15680;BMP180;15488;48.114;11.532;2023-01-28T04:48:50;95690.00;;;8.50
15680;BMP180;15488;48.114;11.532;2023-01-28T04:51:17;95691.00;;;8.50
15680;BMP180;15488;48.114;11.532;2023-01-28T04:53:44;95689.00;;;8.50
15680;BMP180;15488;48.114;11.532;2023-01-28T04:56:12;95690.00;;;8.50
15680;BMP180;15488;48.114;11.532;2023-01-28T04:58:41;95695.00;;;8.50
15680;BMP180;15488;48.114;11.532;2023-01-28T05:01:08;95692.00;;;8.50
15680;BMP180;15488;48.114;11.532;2023-01-28T05:03:35;95697.00;;;8.50
15680;BMP180;15488;48.114;11.532;2023-01-28T05:06:03;95695.00;;;8.50
15680;BMP180;15488;48.114;11.532;2023-01-28T05:08:31;95703.00;;;8.50
15680;BMP180;15488;48.114;11.532;2023-01-28T05:10:58;95703.00;;;8.50
15680;BMP180;15488;48.114;11.532;2023-01-28T05:13:25;95704.00;;;8.50
15680;BMP180;15488;48.114;11.532;2023-01-28T05:15:54;95710.00;;;8.50
15680;BMP180;15488;48.114;11.532;2023-01-28T05:18:22;95706.00;;;8.50
15680;BMP180;15488;48.114;11.532;2023-01-28T05:20:49;95707.00;;;8.50
15680;BMP180;15488;48.114;11.532;2023-01-28T05:23:17;95705.00;;;8.50
15680;BMP180;15488;48.114;11.532;2023-01-28T05:25:44;95706.00;;;8.50
15680;BMP180;15488;48.114;11.532;2023-01-28T05:28:12;95708.00;;;8.50
15680;BMP180;15488;48.114;11.532;2023-01-28T05:30:39;95710.00;;;8.50
15680;BMP180;15488;48.114;11.532;2023-01-28T05:33:08;95720.00;;;8.50
15680;BMP180;15488;48.114;11.532;2023-01-28T05:35:35;95723.00;;;8.50
15680;BMP180;15488;48.114;11.532;2023-01-28T05:38:03;95730.00;;;8.50
15680;BMP180;15488;48.114;11.532;2023-01-28T05:40:31;95724.00;;;8.50
15680;BMP180;15488;48.114;11.532;2023-01-28T05:42:58;95727.00;;;8.50
15680;BMP180;15488;48.114;11.532;2023-01-28T05:45:26;95729.00;;;8.50
15680;BMP180;15488;48.114;11.532;2023-01-28T05:47:53;95731.00;;;8.50
15680;BMP180;15488;48.114;11.532;2023-01-28T05:50:22;95737.00;;;8.50
15680;BMP180;15488;48.114;11.532;2023-01-28T05:52:50;95739.00;;;8.50
15680;BMP180;15488;48.114;11.532;2023-01-28T05:55:17;95749.00;;;8.50
15680;BMP180;15488;48.114;11.532;2023-01-28T05:57:45;95744.00;;;8.50
15680;BMP180;15488;48.114;11.532;2023-01-28T06:00:13;95746.00;;;8.50
15680;BMP180;15488;48.114;11.532;2023-01-28T06:02:41;95757.00;;;8.50
15680;BMP180;15488;48.114;11.532;2023-01-28T06:05:09;95760.00;;;8.50
15680;BMP180;15488;48.114;11.532;2023-01-28T06:07:38;95759.00;;;8.50
15680;BMP180;15488;48.114;11.532;2023-01-28T06:10:06;95756.00;;;8.50
15680;BMP180;15488;48.114;11.532;2023-01-28T06:12:34;95746.00;;;8.50
15680;BMP180;15488;48.114;11.532;2023-01-28T06:15:01;95754.00;;;8.50
15680;BMP180;15488;48.114;11.532;2023-01-28T06:17:29;95760.00;;;8.50
15680;BMP180;15488;48.114;11.532;2023-01-28T06:19:56;95754.00;;;8.50
15680;BMP180;15488;48.114;11.532;2023-01-28T06:22:24;95763.00;;;8.50
15680;BMP180;15488;48.114;11.532;2023-01-28T06:24:52;95759.00;;;8.50
15680;BMP180;15488;48.114;11.532;2023-01-28T06:27:20;95761.00;;;8.50
15680;BMP180;15488;48.114;11.532;2023-01-28T06:29:47;95766.00;;;8.50
15680;BMP180;15488;48.114;11.532;2023-01-28T06:32:15;95761.00;;;8.50
15680;BMP180;15488;48.114;11.532;2023-01-28T06:34:42;95769.00;;;8.50
15680;BMP180;15488;48.114;11.532;2023-01-28T06:37:12;95765.00;;;8.50
15680;BMP180;15488;48.114;11.532;2023-01-28T06:39:39;95773.00;;;8.50
15680;BMP180;15488;48.114;11.532;2023-01-28T06:42:08;95771.00;;;8.50
15680;BMP180;15488;48.114;11.532;2023-01-28T06:44:36;95773.00;;;8.50
15680;BMP180;15488;48.114;11.532;2023-01-28T06:47:03;95774.00;;;8.50
15680;BMP180;15488;48.114;11.532;2023-01-28T06:49:31;95778.00;;;8.50
15680;BMP180;15488;48.114;11.532;2023-01-28T06:51:58;95781.00;;;8.50
15680;BMP180;15488;48.114;11.532;2023-01-28T06:54:25;95774.00;;;8.50
15680;BMP180;15488;48.114;11.532;2023-01-28T06:56:53;95777.00;;;8.50
15680;BMP180;15488;48.114;11.532;2023-01-28T06:59:22;95782.00;;;8.50
15680;BMP180;15488;48.114;11.532;2023-01-28T07:01:49;95786.00;;;8.50
15680;BMP180;15488;48.114;11.532;2023-01-28T07:04:17;95791.00;;;8.50
15680;BMP180;15488;48.114;11.532;2023-01-28T07:06:44;95785.00;;;8.50
15680;BMP180;15488;48.114;11.532;2023-01-28T07:09:11;95794.00;;;8.50
15680;BMP180;15488;48.114;11.532;2023-01-28T07:11:39;95788.00;;;8.50
15680;BMP180;15488;48.114;11.532;2023-01-28T07:14:06;95792.00;;;8.60
15680;BMP180;15488;48.114;11.532;2023-01-28T07:16:35;95797.00;;;8.50
15680;BMP180;15488;48.114;11.532;2023-01-28T07:19:02;95788.00;;;8.50
15680;BMP180;15488;48.114;11.532;2023-01-28T07:21:30;95798.00;;;8.50
15680;BMP180;15488;48.114;11.532;2023-01-28T07:23:57;95801.00;;;8.60
15680;BMP180;15488;48.114;11.532;2023-01-28T07:26:25;95804.00;;;8.60
15680;BMP180;15488;48.114;11.532;2023-01-28T07:28:52;95804.00;;;8.60
15680;BMP180;15488;48.114;11.532;2023-01-28T07:31:19;95810.00;;;8.60
15680;BMP180;15488;48.114;11.532;2023-01-28T07:33:48;95811.00;;;8.60
15680;BMP180;15488;48.114;11.532;2023-01-28T07:36:16;95816.00;;;8.60
15680;BMP180;15488;48.114;11.532;2023-01-28T07:38:43;95821.00;;;8.60
15680;BMP180;15488;48.114;11.532;2023-01-28T07:41:10;95821.00;;;8.60
15680;BMP180;15488;48.114;11.532;2023-01-28T07:43:38;95818.00;;;8.60
15680;BMP180;15488;48.114;11.532;2023-01-28T07:46:05;95817.00;;;8.60
15680;BMP180;15488;48.114;11.532;2023-01-28T07:48:33;95827.00;;;8.60
15680;BMP180;15488;48.114;11.532;2023-01-28T07:51:02;95826.00;;;8.60
15680;BMP180;15488;48.114;11.532;2023-01-28T07:53:29;95827.00;;;8.60
15680;BMP180;15488;48.114;11.532;2023-01-28T07:56:00;95831.00;;;8.60
15680;BMP180;15488;48.114;11.532;2023-01-28T07:58:28;95838.00;;;8.60
15680;BMP180;15488;48.114;11.532;2023-01-28T08:00:56;95836.00;;;8.60
15680;BMP180;15488;48.114;11.532;2023-01-28T08:03:25;95842.00;;;8.60
15680;BMP180;15488;48.114;11.532;2023-01-28T08:05:53;95844.00;;;8.60
15680;BMP180;15488;48.114;11.532;2023-01-28T08:08:23;95844.00;;;8.60
15680;BMP180;15488;48.114;11.532;2023-01-28T08:10:51;95846.00;;;8.60
15680;BMP180;15488;48.114;11.532;2023-01-28T08:13:19;95848.00;;;8.60
15680;BMP180;15488;48.114;11.532;2023-01-28T08:15:47;95851.00;;;8.60
15680;BMP180;15488;48.114;11.532;2023-01-28T08:18:15;95850.00;;;8.60
15680;BMP180;15488;48.114;11.532;2023-01-28T08:20:43;95851.00;;;8.70
15680;BMP180;15488;48.114;11.532;2023-01-28T08:23:14;95861.00;;;8.70
15680;BMP180;15488;48.114;11.532;2023-01-28T08:25:43;95862.00;;;8.70
15680;BMP180;15488;48.114;11.532;2023-01-28T08:28:12;95858.00;;;8.70
15680;BMP180;15488;48.114;11.532;2023-01-28T08:30:40;95868.00;;;8.70
15680;BMP180;15488;48.114;11.532;2023-01-28T08:33:11;95865.00;;;8.80
15680;BMP180;15488;48.114;11.532;2023-01-28T08:35:39;95875.00;;;8.80
15680;BMP180;15488;48.114;11.532;2023-01-28T08:38:09;95874.00;;;8.80
15680;BMP180;15488;48.114;11.532;2023-01-28T08:40:37;95872.00;;;8.80
15680;BMP180;15488;48.114;11.532;2023-01-28T08:43:06;95871.00;;;8.80
15680;BMP180;15488;48.114;11.532;2023-01-28T08:45:33;95872.00;;;8.80
15680;BMP180;15488;48.114;11.532;2023-01-28T08:48:03;95871.00;;;8.90
15680;BMP180;15488;48.114;11.532;2023-01-28T08:50:32;95870.00;;;8.90
15680;BMP180;15488;48.114;11.532;2023-01-28T08:53:02;95876.00;;;8.90
15680;BMP180;15488;48.114;11.532;2023-01-28T08:55:30;95877.00;;;8.90
15680;BMP180;15488;48.114;11.532;2023-01-28T08:58:01;95875.00;;;8.90
15680;BMP180;15488;48.114;11.532;2023-01-28T09:00:30;95885.00;;;8.90
15680;BMP180;15488;48.114;11.532;2023-01-28T09:02:58;95882.00;;;8.90
15680;BMP180;15488;48.114;11.532;2023-01-28T09:05:25;95883.00;;;9.00
15680;BMP180;15488;48.114;11.532;2023-01-28T09:07:53;95885.00;;;9.00
15680;BMP180;15488;48.114;11.532;2023-01-28T09:10:20;95889.00;;;9.00
15680;BMP180;15488;48.114;11.532;2023-01-28T09:12:48;95891.00;;;9.00
15680;BMP180;15488;48.114;11.532;2023-01-28T09:15:15;95896.00;;;9.00
15680;BMP180;15488;48.114;11.532;2023-01-28T09:17:44;95883.00;;;9.00
15680;BMP180;15488;48.114;11.532;2023-01-28T09:20:12;95886.00;;;9.10
15680;BMP180;15488;48.114;11.532;2023-01-28T09:22:40;95890.00;;;9.10
15680;BMP180;15488;48.114;11.532;2023-01-28T09:25:08;95883.00;;;9.10
15680;BMP180;15488;48.114;11.532;2023-01-28T09:27:35;95895.00;;;9.10
15680;BMP180;15488;48.114;11.532;2023-01-28T09:30:03;95902.00;;;9.10
15680;BMP180;15488;48.114;11.532;2023-01-28T09:32:32;95902.00;;;9.20
15680;BMP180;15488;48.114;11.532;2023-01-28T09:35:00;95897.00;;;9.20
15680;BMP180;15488;48.114;11.532;2023-01-28T09:37:28;95899.00;;;9.30
15680;BMP180;15488;48.114;11.532;2023-01-28T09:39:55;95895.00;;;9.30
15680;BMP180;15488;48.114;11.532;2023-01-28T09:42:38;95894.00;;;9.30
15680;BMP180;15488;48.114;11.532;2023-01-28T09:45:14;95899.00;;;9.30
15680;BMP180;15488;48.114;11.532;2023-01-28T09:47:45;95883.00;;;9.30
15680;BMP180;15488;48.114;11.532;2023-01-28T09:50:17;95886.00;;;9.20
15680;BMP180;15488;48.114;11.532;2023-01-28T09:52:46;95886.00;;;9.30
15680;BMP180;15488;48.114;11.532;2023-01-28T09:55:21;95892.00;;;9.30
15680;BMP180;15488;48.114;11.532;2023-01-28T09:57:52;95891.00;;;9.30
15680;BMP180;15488;48.114;11.532;2023-01-28T10:00:22;95885.00;;;9.30
15680;BMP180;15488;48.114;11.532;2023-01-28T10:03:02;95881.00;;;9.30
15680;BMP180;15488;48.114;11.532;2023-01-28T10:05:40;95882.00;;;9.50
15680;BMP180;15488;48.114;11.532;2023-01-28T10:08:24;95882.00;;;9.50
15680;BMP180;15488;48.114;11.532;2023-01-28T10:10:58;95883.00;;;9.50
15680;BMP180;15488;48.114;11.532;2023-01-28T10:13:37;95885.00;;;9.50
15680;BMP180;15488;48.114;11.532;2023-01-28T10:16:15;95877.00;;;9.60
15680;BMP180;15488;48.114;11.532;2023-01-28T10:18:49;95877.00;;;9.60
15680;BMP180;15488;48.114;11.532;2023-01-28T10:21:21;95884.00;;;9.60
15680;BMP180;15488;48.114;11.532;2023-01-28T10:23:56;95878.00;;;9.60
15680;BMP180;15488;48.114;11.532;2023-01-28T10:26:28;95877.00;;;9.60
15680;BMP180;15488;48.114;11.532;2023-01-28T10:29:02;95869.00;;;9.70
15680;BMP180;15488;48.114;11.532;2023-01-28T10:31:33;95881.00;;;9.70
15680;BMP180;15488;48.114;11.532;2023-01-28T10:34:01;95876.00;;;9.80
15680;BMP180;15488;48.114;11.532;2023-01-28T10:36:31;95869.00;;;9.70
15680;BMP180;15488;48.114;11.532;2023-01-28T10:38:58;95870.00;;;9.80
15680;BMP180;15488;48.114;11.532;2023-01-28T10:41:26;95878.00;;;9.90
15680;BMP180;15488;48.114;11.532;2023-01-28T10:43:53;95874.00;;;9.90
15680;BMP180;15488;48.114;11.532;2023-01-28T10:46:27;95868.00;;;9.90
15680;BMP180;15488;48.114;11.532;2023-01-28T10:49:01;95870.00;;;9.80
15680;BMP180;15488;48.114;11.532;2023-01-28T10:51:36;95871.00;;;9.90
15680;BMP180;15488;48.114;11.532;2023-01-28T10:54:16;95869.00;;;10.00
15680;BMP180;15488;48.114;11.532;2023-01-28T10:56:44;95867.00;;;10.00
15680;BMP180;15488;48.114;11.532;2023-01-28T10:59:20;95864.00;;;9.90
15680;BMP180;15488;48.114;11.532;2023-01-28T11:01:50;95874.00;;;10.00
15680;BMP180;15488;48.114;11.532;2023-01-28T11:04:21;95873.00;;;10.00
15680;BMP180;15488;48.114;11.532;2023-01-28T11:06:56;95870.00;;;10.10
15680;BMP180;15488;48.114;11.532;2023-01-28T11:09:26;95870.00;;;10.10
15680;BMP180;15488;48.114;11.532;2023-01-28T11:11:53;95871.00;;;10.10
15680;BMP180;15488;48.114;11.532;2023-01-28T11:14:25;95862.00;;;10.20
15680;BMP180;15488;48.114;11.532;2023-01-28T11:16:55;95866.00;;;10.30
15680;BMP180;15488;48.114;11.532;2023-01-28T11:19:30;95868.00;;;10.30
15680;BMP180;15488;48.114;11.532;2023-01-28T11:21:59;95864.00;;;10.30
15680;BMP180;15488;48.114;11.532;2023-01-28T11:24:28;95868.00;;;10.40
15680;BMP180;15488;48.114;11.532;2023-01-28T11:26:57;95875.00;;;10.40
15680;BMP180;15488;48.114;11.532;2023-01-28T11:29:27;95810.00;;;10.40
15680;BMP180;15488;48.114;11.532;2023-01-28T11:31:57;95867.00;;;10.50
15680;BMP180;15488;48.114;11.532;2023-01-28T11:34:27;95874.00;;;10.50
15680;BMP180;15488;48.114;11.532;2023-01-28T11:37:01;95878.00;;;10.50
15680;BMP180;15488;48.114;11.532;2023-01-28T11:39:31;95880.00;;;10.60
15680;BMP180;15488;48.114;11.532;2023-01-28T11:42:12;95873.00;;;10.60
15680;BMP180;15488;48.114;11.532;2023-01-28T11:44:42;95872.00;;;10.60
15680;BMP180;15488;48.114;11.532;2023-01-28T11:47:33;95870.00;;;10.60
15680;BMP180;15488;48.114;11.532;2023-01-28T11:50:23;95875.00;;;10.60
15680;BMP180;15488;48.114;11.532;2023-01-28T11:52:59;95876.00;;;10.60
15680;BMP180;15488;48.114;11.532;2023-01-28T11:55:41;95873.00;;;10.60
15680;BMP180;15488;48.114;11.532;2023-01-28T11:58:22;95870.00;;;10.60
15680;BMP180;15488;48.114;11.532;2023-01-28T12:01:01;95869.00;;;10.60
15680;BMP180;15488;48.114;11.532;2023-01-28T12:03:45;95865.00;;;10.60
15680;BMP180;15488;48.114;11.532;2023-01-28T12:06:35;95866.00;;;10.60
15680;BMP180;15488;48.114;11.532;2023-01-28T12:09:14;95867.00;;;10.70
15680;BMP180;15488;48.114;11.532;2023-01-28T12:12:08;95867.00;;;10.70
15680;BMP180;15488;48.114;11.532;2023-01-28T12:14:50;95866.00;;;10.70
15680;BMP180;15488;48.114;11.532;2023-01-28T12:17:31;95862.00;;;10.70
15680;BMP180;15488;48.114;11.532;2023-01-28T12:20:10;95859.00;;;10.80
15680;BMP180;15488;48.114;11.532;2023-01-28T12:23:04;95859.00;;;10.80
15680;BMP180;15488;48.114;11.532;2023-01-28T12:25:45;95867.00;;;10.80
15680;BMP180;15488;48.114;11.532;2023-01-28T12:28:23;95871.00;;;10.90
15680;BMP180;15488;48.114;11.532;2023-01-28T12:31:13;95870.00;;;10.90
15680;BMP180;15488;48.114;11.532;2023-01-28T12:34:09;95871.00;;;10.90
15680;BMP180;15488;48.114;11.532;2023-01-28T12:36:47;95863.00;;;11.00
15680;BMP180;15488;48.114;11.532;2023-01-28T12:39:25;95868.00;;;11.00
15680;BMP180;15488;48.114;11.532;2023-01-28T12:42:02;95868.00;;;11.10
15680;BMP180;15488;48.114;11.532;2023-01-28T12:44:33;95865.00;;;11.10
15680;BMP180;15488;48.114;11.532;2023-01-28T12:47:05;95870.00;;;11.20
15680;BMP180;15488;48.114;11.532;2023-01-28T12:49:37;95869.00;;;11.20
15680;BMP180;15488;48.114;11.532;2023-01-28T12:52:08;95871.00;;;11.30
15680;BMP180;15488;48.114;11.532;2023-01-28T12:54:40;95862.00;;;11.30
15680;BMP180;15488;48.114;11.532;2023-01-28T12:57:15;95864.00;;;11.40
15680;BMP180;15488;48.114;11.532;2023-01-28T12:59:47;95868.00;;;11.30
15680;BMP180;15488;48.114;11.532;2023-01-28T13:02:22;95870.00;;;11.30
15680;BMP180;15488;48.114;11.532;2023-01-28T13:04:55;95873.00;;;11.30
15680;BMP180;15488;48.114;11.532;2023-01-28T13:07:27;95872.00;;;11.20
15680;BMP180;15488;48.114;11.532;2023-01-28T13:10:02;95876.00;;;11.20
15680;BMP180;15488;48.114;11.532;2023-01-28T13:12:32;95870.00;;;11.10
15680;BMP180;15488;48.114;11.532;2023-01-28T13:15:00;95866.00;;;11.10
15680;BMP180;15488;48.114;11.532;2023-01-28T13:17:29;95876.00;;;11.00
15680;BMP180;15488;48.114;11.532;2023-01-28T13:19:58;95874.00;;;11.00
15680;BMP180;15488;48.114;11.532;2023-01-28T13:22:28;95881.00;;;10.90
15680;BMP180;15488;48.114;11.532;2023-01-28T13:24:57;95876.00;;;10.90
15680;BMP180;15488;48.114;11.532;2023-01-28T13:27:39;95881.00;;;10.80
15680;BMP180;15488;48.114;11.532;2023-01-28T13:30:24;95884.00;;;10.70
15680;BMP180;15488;48.114;11.532;2023-01-28T13:32:57;95888.00;;;10.70
15680;BMP180;15488;48.114;11.532;2023-01-28T13:35:30;95886.00;;;10.70
15680;BMP180;15488;48.114;11.532;2023-01-28T13:37:58;95891.00;;;10.60
15680;BMP180;15488;48.114;11.532;2023-01-28T13:40:27;95885.00;;;10.50
15680;BMP180;15488;48.114;11.532;2023-01-28T13:43:02;95891.00;;;10.50
15680;BMP180;15488;48.114;11.532;2023-01-28T13:45:30;95888.00;;;10.40
15680;BMP180;15488;48.114;11.532;2023-01-28T13:48:04;95894.00;;;10.40
15680;BMP180;15488;48.114;11.532;2023-01-28T13:50:41;95895.00;;;10.40
15680;BMP180;15488;48.114;11.532;2023-01-28T13:53:22;95896.00;;;10.40
15680;BMP180;15488;48.114;11.532;2023-01-28T13:55:53;95902.00;;;10.30
15680;BMP180;15488;48.114;11.532;2023-01-28T14:01:29;95910.00;;;10.30
15680;BMP180;15488;48.114;11.532;2023-01-28T14:04:32;95907.00;;;10.30
15680;BMP180;15488;48.114;11.532;2023-01-28T14:13:01;95918.00;;;10.10
15680;BMP180;15488;48.114;11.532;2023-01-28T14:15:56;95921.00;;;10.10
15680;BMP180;15488;48.114;11.532;2023-01-28T14:18:26;95916.00;;;10.10
15680;BMP180;15488;48.114;11.532;2023-01-28T14:20:57;95921.00;;;10.10
15680;BMP180;15488;48.114;11.532;2023-01-28T14:23:26;95916.00;;;10.10
15680;BMP180;15488;48.114;11.532;2023-01-28T14:26:13;95916.00;;;10.10
15680;BMP180;15488;48.114;11.532;2023-01-28T14:28:49;95924.00;;;10.00
15680;BMP180;15488;48.114;11.532;2023-01-28T14:31:28;95924.00;;;10.10
15680;BMP180;15488;48.114;11.532;2023-01-28T14:34:05;95927.00;;;10.10
15680;BMP180;15488;48.114;11.532;2023-01-28T14:36:37;95929.00;;;10.10
15680;BMP180;15488;48.114;11.532;2023-01-28T14:39:10;95931.00;;;10.10
15680;BMP180;15488;48.114;11.532;2023-01-28T14:41:43;95940.00;;;10.00
15680;BMP180;15488;48.114;11.532;2023-01-28T14:44:14;95936.00;;;10.10